Time;durP1;ratioP1;P1;durP2;ratioP2;P2;SDS_P1;SDS_P2;PMS_P1;PMS_P2;Temp;Humidity;BMP_temperature;BMP_pressure;BME280_temperature;BME280_humidity;BME280_pressure;Samples;Min_cycle;Max_cycle;Signal;HPM_P1;HPM_P2
2022/05/30 00:01:43;;;;;;;6.22;1.10;;;;;;;;;;4984133;28;20126;-78
2022/05/30 00:04:09;;;;;;;0.77;0.77;;;11.90;60.60;;;;;;4981928;28;20403;-78
2022/05/30 00:06:35;;;;;;;1.98;0.88;;;;;;;;;;4986986;28;20104;-78
2022/05/30 00:09:02;;;;;;;3.75;0.85;;;;;;;;;;4977928;28;20477;-78
2022/05/30 00:11:28;;;;;;;1.10;1.00;;;;;;;;;;4986290;28;20033;-78
2022/05/30 00:13:54;;;;;;;1.52;0.90;;;;;;;;;;4986595;28;20492;-79
2022/05/30 00:16:22;;;;;;;0.95;0.82;;;;;;;;;;4980535;28;20038;-78
2022/05/30 00:18:48;;;;;;;;;;;;;;;;;;4978256;28;20119;-78
2022/05/30 00:21:17;;;;;;;0.90;0.85;;;;;;;;;;4980365;28;20000;-78
2022/05/30 00:23:43;;;;;;;7.95;1.98;;;;;;;;;;4982017;28;20113;-78
2022/05/30 00:26:09;;;;;;;0.85;0.85;;;;;;;;;;4986393;28;20109;-78
2022/05/30 00:28:36;;;;;;;0.95;0.77;;;;;;;;;;4986700;28;20038;-78
2022/05/30 00:31:02;;;;;;;2.13;1.00;;;;;;;;;;4989860;28;20019;-78
2022/05/30 00:33:28;;;;;;;1.27;0.90;;;;;;;;;;4984275;28;20061;-79
2022/05/30 00:35:54;;;;;;;1.15;0.90;;;;;;;;;;4986223;28;20025;-78
2022/05/30 00:38:20;;;;;;;1.33;1.05;;;;;;;;;;4986247;28;20034;-77
2022/05/30 00:40:46;;;;;;;4.03;1.38;;;;;;;;;;4986344;28;20498;-79
2022/05/30 00:43:32;;;;;;;0.93;0.75;;;;;;;;;;4986069;28;20418;-78
2022/05/30 00:46:00;;;;;;;2.88;1.48;;;;;;;;;;4978173;28;20692;-78
2022/05/30 00:48:30;;;;;;;2.33;1.20;;;;;;;;;;4986739;28;20484;-78
2022/05/30 00:51:07;;;;;;;0.93;0.85;;;;;;;;;;4981624;28;20029;-78
2022/05/30 00:53:34;;;;;;;1.40;1.20;;;;;;;;;;4983815;28;20031;-78
2022/05/30 00:56:01;;;;;;;2.73;1.33;;;;;;;;;;4986826;28;20642;-78
2022/05/30 00:58:27;;;;;;;;;;;;;;;;;;4989196;28;20138;-78
2022/05/30 01:00:53;;;;;;;0.77;0.77;;;;;;;;;;4986885;28;20609;-78
2022/05/30 01:08:48;;;;;;;2.38;0.73;;;;;;;;;;4984511;28;20085;-78
2022/05/30 01:11:14;;;;;;;1.17;1.10;;;;;;;;;;4987914;28;20464;-78
2022/05/30 01:13:40;;;;;;;1.23;1.05;;;;;;;;;;4986949;28;20062;-78
2022/05/30 01:16:07;;;;;;;3.15;1.15;;;;;;;;;;4989540;28;20033;-78
2022/05/30 01:18:36;;;;;;;2.83;0.77;;;;;;;;;;4985257;28;20038;-78
2022/05/30 01:21:21;;;;;;;3.40;1.30;;;;;;;;;;4980147;28;20464;-78
2022/05/30 01:24:13;;;;;;;1.08;0.95;;;;;;;;;;4989190;28;20158;-78
2022/05/30 01:27:14;;;;;;;0.95;0.93;;;10.80;66.20;;;;;;4984731;28;20237;-77
2022/05/30 01:29:43;;;;;;;1.08;0.98;;;;;;;;;;4980436;28;20746;-78
2022/05/30 01:32:09;;;;;;;3.22;1.13;;;;;;;;;;4988507;28;20023;-78
2022/05/30 01:34:35;;;;;;;4.57;1.30;;;;;;;;;;4987647;28;20137;-78
2022/05/30 01:37:01;;;;;;;3.50;1.95;;;;;;;;;;4989240;28;20822;-77
2022/05/30 01:39:27;;;;;;;2.40;1.48;;;;;;;;;;4989715;28;20049;-78
2022/05/30 01:41:53;;;;;;;1.45;1.13;;;;;;;;;;4984673;28;20051;-78
2022/05/30 01:44:19;;;;;;;2.08;1.35;;;;;;;;;;4987785;28;20058;-78
2022/05/30 01:46:45;;;;;;;1.98;1.20;;;;;;;;;;4986583;28;20458;-78
2022/05/30 01:49:11;;;;;;;5.68;1.10;;;;;;;;;;4981869;28;20042;-77
2022/05/30 01:51:37;;;;;;;1.33;1.00;;;;;;;;;;4989358;28;20033;-79
2022/05/30 01:54:03;;;;;;;9.13;1.30;;;;;;;;;;4986277;28;20588;-78
2022/05/30 01:56:29;;;;;;;1.45;1.15;;;;;;;;;;4985308;28;20041;-78
2022/05/30 01:58:55;;;;;;;1.90;1.10;;;;;;;;;;4988231;28;20034;-78
2022/05/30 02:01:24;;;;;;;1.20;1.10;;;;;;;;;;4988325;28;20027;-78
2022/05/30 02:03:51;;;;;;;1.30;1.20;;;;;;;;;;4984907;28;20015;-78
2022/05/30 02:06:19;;;;;;;2.30;1.48;;;;;;;;;;4983544;28;20030;-78
2022/05/30 02:08:47;;;;;;;2.00;1.60;;;;;;;;;;4983365;28;20061;-78
2022/05/30 02:11:13;;;;;;;;;;;;;;;;;;4988735;28;20391;-79
2022/05/30 02:13:39;;;;;;;2.47;1.38;;;;;;;;;;4988576;28;19953;-78
2022/05/30 02:18:51;;;;;;;1.90;1.17;;;;;;;;;;4984570;28;20034;-78
2022/05/30 02:21:17;;;;;;;1.80;1.00;;;;;;;;;;4987788;28;20034;-78
2022/05/30 02:23:43;;;;;;;1.10;1.05;;;;;;;;;;4983722;28;20078;-78
2022/05/30 02:26:10;;;;;;;2.67;1.50;;;;;;;;;;4988444;28;20062;-79
2022/05/30 02:28:36;;;;;;;0.95;0.90;;;;;;;;;;4987979;28;20065;-78
2022/05/30 02:31:02;;;;;;;1.05;0.95;;;;;;;;;;4984643;28;20030;-78
2022/05/30 02:38:57;;;;;;;1.73;1.00;;;;;;;;;;4979660;28;20530;-79
2022/05/30 02:41:23;;;;;;;0.60;0.60;;;;;;;;;;4984712;28;20047;-78
2022/05/30 02:43:50;;;;;;;1.77;0.70;;;;;;;;;;4983885;28;20380;-78
2022/05/30 02:46:17;;;;;;;2.30;1.33;;;;;;;;;;4987832;28;20435;-78
2022/05/30 02:48:43;;;;;;;2.15;1.17;;;;;;;;;;4988112;28;20045;-78
2022/05/30 02:51:09;;;;;;;0.93;0.80;;;;;;;;;;4985871;28;20031;-78
2022/05/30 02:53:36;;;;;;;2.72;1.23;;;;;;;;;;4982443;28;20034;-78
2022/05/30 02:56:02;;;;;;;2.85;1.30;;;;;;;;;;4987635;28;20447;-78
2022/05/30 02:58:28;;;;;;;1.15;1.05;;;;;;;;;;4987738;28;20041;-78
2022/05/30 03:00:54;;;;;;;1.90;1.60;;;;;;;;;;4980088;28;20077;-78
2022/05/30 03:03:20;;;;;;;9.30;1.80;;;;;;;;;;4979213;28;20035;-78
2022/05/30 03:05:46;;;;;;;2.42;1.17;;;;;;;;;;4990241;28;20454;-78
2022/05/30 03:08:12;;;;;;;1.45;1.13;;;;;;;;;;4987443;28;20069;-77
2022/05/30 03:10:38;;;;;;;1.20;0.98;;;;;;;;;;4987336;28;20034;-78
2022/05/30 03:13:05;;;;;;;2.05;1.90;;;;;;;;;;4987010;28;20085;-78
2022/05/30 03:15:31;;;;;;;1.40;1.13;;;;;;;;;;4981259;28;20056;-78
2022/05/30 03:17:57;;;;;;;5.32;1.23;;;;;;;;;;4985854;28;20468;-77
2022/05/30 03:20:23;;;;;;;5.22;1.00;;;;;;;;;;4984310;28;20072;-77
2022/05/30 03:22:49;;;;;;;3.25;1.67;;;;;;;;;;4985630;28;20034;-78
2022/05/30 03:25:16;;;;;;;1.30;1.08;;;;;;;;;;4985438;28;20027;-78
2022/05/30 03:27:42;;;;;;;1.25;1.02;;;;;;;;;;4985027;28;20031;-78
2022/05/30 03:30:09;;;;;;;1.95;1.15;;;;;;;;;;4982619;28;20041;-78
2022/05/30 03:32:35;;;;;;;2.22;1.25;;;;;;;;;;4986950;28;20439;-77
2022/05/30 03:35:01;;;;;;;3.25;2.00;;;;;;;;;;4986707;28;20030;-78
2022/05/30 03:37:27;;;;;;;1.38;1.25;;;;;;;;;;4982707;28;20059;-78
2022/05/30 03:39:53;;;;;;;1.38;0.95;;;;;;;;;;4983340;28;20033;-77
2022/05/30 03:42:20;;;;;;;0.98;0.98;;;;;;;;;;4981945;28;20041;-78
2022/05/30 03:44:46;;;;;;;1.20;0.82;;;;;;;;;;4986793;28;20056;-77
2022/05/30 03:47:12;;;;;;;1.73;1.13;;;;;;;;;;4985799;28;20562;-77
2022/05/30 03:49:38;;;;;;;1.27;1.17;;;;;;;;;;4984760;28;20042;-78
2022/05/30 03:52:05;;;;;;;1.65;0.88;;;;;;;;;;4977838;28;20022;-78
2022/05/30 03:54:31;;;;;;;4.18;0.85;;;;;;;;;;4987156;28;20029;-77
2022/05/30 03:56:57;;;;;;;1.20;1.10;;;;;;;;;;4982457;28;20033;-78
2022/05/30 03:59:23;;;;;;;4.68;1.02;;;;;;;;;;4979079;28;20039;-78
2022/05/30 04:01:49;;;;;;;1.25;1.10;;;;;;;;;;4985199;28;20027;-78
2022/05/30 04:04:15;;;;;;;1.67;1.30;;;;;;;;;;4982238;28;20033;-78
2022/05/30 04:06:41;;;;;;;2.97;2.10;;;;;;;;;;4987849;28;20031;-78
2022/05/30 04:09:08;;;;;;;2.25;1.05;;;;;;;;;;4985838;28;20049;-78
2022/05/30 04:11:35;;;;;;;1.05;0.95;;;;;;;;;;4982394;28;20023;-78
2022/05/30 04:14:01;;;;;;;1.77;1.37;;;;;;;;;;4974862;28;20033;-78
2022/05/30 04:16:27;;;;;;;1.00;0.88;;;;;;;;;;4986248;28;20046;-78
2022/05/30 04:18:53;;;;;;;4.35;1.50;;;;;;;;;;4982772;28;20037;-77
2022/05/30 04:21:19;;;;;;;2.78;1.40;;;;;;;;;;4977343;28;20030;-78
2022/05/30 04:23:45;;;;;;;1.25;0.90;;;;;;;;;;4984315;28;20034;-78
2022/05/30 04:26:13;;;;;;;1.10;1.05;;;;;;;;;;4986753;28;20026;-78
2022/05/30 04:28:39;;;;;;;0.77;0.77;;;;;;;;;;4986415;28;20058;-78
2022/05/30 04:31:12;;;;;;;1.40;1.20;;;;;;;;;;4986163;28;20054;-78
2022/05/30 04:33:39;;;;;;;1.25;1.17;;;;;;;;;;5000337;28;20500;-77
2022/05/30 04:36:09;;;;;;;1.13;0.90;;;;;;;;;;4986871;28;20023;-78
2022/05/30 04:38:35;;;;;;;1.52;1.08;;;;;;;;;;4985601;28;20274;-79
2022/05/30 04:41:01;;;;;;;8.32;1.90;;;;;;;;;;4989789;28;20459;-77
2022/05/30 04:43:27;;;;;;;3.22;1.55;;;;;;;;;;4990417;28;20026;-77
2022/05/30 04:46:07;;;;;;;1.35;1.25;;;;;;;;;;4986764;28;20038;-78
2022/05/30 04:48:33;;;;;;;1.38;1.20;;;;;;;;;;4981420;28;20069;-78
2022/05/30 04:50:59;;;;;;;1.55;1.20;;;;;;;;;;4987969;28;20034;-77
2022/05/30 04:53:25;;;;;;;1.35;1.05;;;;;;;;;;4985525;28;20029;-78
2022/05/30 04:55:51;;;;;;;0.98;0.82;;;;;;;;;;4985658;28;20550;-78
2022/05/30 04:58:17;;;;;;;0.77;0.68;;;;;;;;;;4984084;28;20057;-78
2022/05/30 05:00:43;;;;;;;1.52;1.17;;;;;;;;;;4985794;28;20066;-78
2022/05/30 05:03:09;;;;;;;1.60;1.15;;;;;;;;;;4989570;28;20026;-78
2022/05/30 05:05:35;;;;;;;2.80;1.38;;;;;;;;;;4988367;28;20109;-78
2022/05/30 05:08:01;;;;;;;0.95;0.90;;;;;;;;;;4987890;28;20133;-79
2022/05/30 05:10:48;;;;;;;2.15;1.17;;;;;;;;;;4987567;28;20443;-77
2022/05/30 05:13:14;;;;;;;1.00;0.90;;;;;;;;;;4987413;28;20026;-78
2022/05/30 05:15:40;;;;;;;1.10;1.00;;;;;;;;;;4983552;28;20403;-77
2022/05/30 05:18:06;;;;;;;1.65;1.00;;;;;;;;;;4986776;28;20037;-78
2022/05/30 05:20:39;;;;;;;2.00;1.08;;;;;;;;;;4986290;28;20065;-79
2022/05/30 05:23:05;;;;;;;4.18;1.25;;;;;;;;;;4986333;28;20018;-68
2022/05/30 05:25:31;;;;;;;1.25;1.15;;;;;;;;;;4978397;28;20174;-74
2022/05/30 05:27:57;;;;;;;1.10;0.80;;;;;;;;;;4987153;28;20015;-74
2022/05/30 05:30:23;;;;;;;5.88;2.20;;;;;;;;;;4985304;28;20046;-74
2022/05/30 05:32:49;;;;;;;2.17;1.00;;;;;;;;;;4984671;28;20022;-73
2022/05/30 05:35:15;;;;;;;1.98;0.98;;;;;;;;;;4984940;28;20030;-74
2022/05/30 05:37:41;;;;;;;2.25;1.25;;;;;;;;;;4986286;28;20030;-74
2022/05/30 05:40:07;;;;;;;2.35;1.23;;;;;;;;;;4985068;28;20055;-74
2022/05/30 05:42:33;;;;;;;3.53;1.58;;;;;;;;;;4987147;28;20050;-74
2022/05/30 05:45:00;;;;;;;2.47;1.58;;;;;;;;;;4981319;28;20578;-74
2022/05/30 05:47:26;;;;;;;2.28;2.08;;;;;;;;;;4982051;28;20060;-73
2022/05/30 05:49:52;;;;;;;3.70;1.33;;;;;;;;;;4985310;28;20507;-74
2022/05/30 05:52:18;;;;;;;3.35;1.15;;;;;;;;;;4980844;28;20026;-72
2022/05/30 05:54:44;;;;;;;2.92;1.20;;;;;;;;;;4985865;28;20044;-71
2022/05/30 05:57:10;;;;;;;4.00;1.38;;;;;;;;;;4986085;28;20615;-71
2022/05/30 05:59:36;;;;;;;3.80;1.23;;;;;;;;;;4988185;28;20049;-71
2022/05/30 06:02:04;;;;;;;1.00;0.90;;;;;;;;;;4987137;28;20403;-70
2022/05/30 06:04:30;;;;;;;;;;;;;;;;;;4987006;28;20031;-71
2022/05/30 06:06:59;;;;;;;1.55;1.38;;;;;;;;;;4988126;28;19956;-71
2022/05/30 06:09:25;;;;;;;2.08;0.90;;;;;;;;;;4983397;28;20507;-72
2022/05/30 06:11:53;;;;;;;1.73;0.90;;;;;;;;;;4987976;28;20026;-71
2022/05/30 06:14:19;;;;;;;;;;;;;;;;;;4989517;28;20775;-71
2022/05/30 06:16:46;;;;;;;1.75;0.73;;;;;;;;;;4987737;28;19952;-70
2022/05/30 06:19:12;;;;;;;1.38;1.27;;;;;;;;;;4987609;28;20038;-71
2022/05/30 06:21:39;;;;;;;3.17;1.08;;;;;;;;;;4984633;28;20073;-71
2022/05/30 06:24:05;;;;;;;5.60;1.30;;;;;;;;;;4986641;28;20054;-71
2022/05/30 06:26:31;;;;;;;2.72;1.00;;;;;;;;;;4987989;28;20030;-71
2022/05/30 06:28:58;;;;;;;4.05;1.40;;;;;;;;;;4987612;28;20041;-71
2022/05/30 06:31:25;;;;;;;0.70;0.70;;;;;;;;;;4987601;28;20069;-72
2022/05/30 06:33:53;;;;;;;0.80;0.73;;;;;;;;;;4988363;28;20542;-72
2022/05/30 06:36:20;;;;;;;2.88;0.95;;;;;;;;;;4987150;28;20050;-72
2022/05/30 06:38:47;;;;;;;1.25;1.15;;;;;;;;;;4986454;28;20042;-72
2022/05/30 06:41:18;;;;;;;0.82;0.75;;;;;;;;;;4982451;28;20110;-71
2022/05/30 06:43:44;;;;;;;1.67;0.77;;;19.70;47.10;;;;;;4985003;28;20034;-71
2022/05/30 06:46:11;;;;;;;2.00;0.80;;;;;;;;;;4987322;28;20145;-71
2022/05/30 06:48:37;;;;;;;;;;;;;;;;;;4988515;28;20037;-71
2022/05/30 06:51:05;;;;;;;1.60;0.50;;;;;;;;;;4981653;28;19914;-71
2022/05/30 06:53:32;;;;;;;2.63;0.60;;;;;;;;;;4980149;28;20054;-73
2022/05/30 06:55:59;;;;;;;1.48;0.43;;;;;;;;;;4985988;28;20026;-72
2022/05/30 06:58:25;;;;;;;3.30;0.43;;;;;;;;;;4987369;28;20531;-71
2022/05/30 07:00:52;;;;;;;0.17;0.13;;;;;;;;;;4987994;28;20061;-72
2022/05/30 07:03:18;;;;;;;1.88;0.40;;;27.50;36.20;;;;;;4986840;28;20042;-73
2022/05/30 07:05:46;;;;;;;;;;;28.00;32.00;;;;;;4984821;28;20578;-72
2022/05/30 07:08:12;;;;;;;2.17;0.40;;;28.70;33.40;;;;;;4986434;28;20338;-72
2022/05/30 07:10:39;;;;;;;1.33;0.55;;;29.30;30.10;;;;;;4986331;28;20042;-72
2022/05/30 07:13:05;;;;;;;1.40;0.40;;;;;;;;;;4984658;28;20397;-73
2022/05/30 07:15:34;;;;;;;2.97;0.52;;;29.90;28.10;;;;;;4982309;28;20035;-72
2022/05/30 07:18:00;;;;;;;2.78;0.40;;;;;;;;;;4981850;28;20037;-72
2022/05/30 07:20:26;;;;;;;;;;;30.70;28.20;;;;;;4983412;28;20632;-71
2022/05/30 07:22:52;;;;;;;2.15;0.60;;;;;;;;;;4985341;28;19909;-72
2022/05/30 07:25:18;;;;;;;2.80;0.30;;;;;;;;;;4984969;28;20113;-71
2022/05/30 07:27:43;;;;;;;;;;;31.20;26.90;;;;;;4983836;28;20407;-72
2022/05/30 07:30:09;;;;;;;2.97;0.28;;;;;;;;;;4986073;28;20005;-72
2022/05/30 07:32:35;;;;;;;2.30;1.20;;;;;;;;;;4982669;28;20565;-73
2022/05/30 07:35:02;;;;;;;0.70;0.30;;;;;;;;;;4984312;28;20043;-71
2022/05/30 07:37:27;;;;;;;2.30;0.50;;;31.30;41.00;;;;;;4986540;28;20491;-72
2022/05/30 07:39:53;;;;;;;1.85;0.35;;;;;;;;;;4985800;28;20041;-71
2022/05/30 07:42:19;;;;;;;2.05;0.65;;;;;;;;;;4983948;28;20046;-72
2022/05/30 07:44:45;;;;;;;1.27;0.45;;;;;;;;;;4983895;28;20060;-72
2022/05/30 07:47:11;;;;;;;0.85;0.43;;;;;;;;;;4986191;28;20049;-72
2022/05/30 07:49:38;;;;;;;4.57;0.63;;;;;;;;;;4986644;28;20042;-72
2022/05/30 07:52:04;;;;;;;0.43;0.30;;;;;;;;;;4984685;28;20019;-71
2022/05/30 07:54:30;;;;;;;1.83;0.35;;;;;;;;;;4982518;28;20106;-73
2022/05/30 07:56:56;;;;;;;1.40;0.77;;;;;;;;;;4986312;28;20114;-73
2022/05/30 07:59:22;;;;;;;1.35;0.43;;;;;;;;;;4984671;28;20114;-70
2022/05/30 08:01:48;;;;;;;1.73;0.30;;;;;;;;;;4981301;28;20052;-73
2022/05/30 08:04:15;;;;;;;2.25;0.52;;;;;;;;;;4976744;28;20113;-73
2022/05/30 08:06:42;;;;;;;3.55;1.00;;;;;;;;;;4988822;28;20033;-72
2022/05/30 08:09:08;;;;;;;1.88;0.35;;;;;;;;;;4989637;28;20081;-72
2022/05/30 08:11:34;;;;;;;1.15;0.40;;;;;;;;;;4990110;28;20022;-72
2022/05/30 08:14:00;;;;;;;1.80;0.80;;;;;;;;;;4985909;28;20527;-73
2022/05/30 08:16:26;;;;;;;;;;;31.80;27.80;;;;;;4991042;28;20030;-71
2022/05/30 08:18:52;;;;;;;0.85;0.25;;;31.50;28.90;;;;;;4992839;28;20355;-72
2022/05/30 08:21:18;;;;;;;1.27;0.30;;;;;;;;;;4986380;28;20042;-72
2022/05/30 08:23:44;;;;;;;0.68;0.20;;;;;;;;;;4989558;28;20113;-72
2022/05/30 08:26:13;;;;;;;1.55;0.30;;;31.90;26.40;;;;;;4991236;28;20034;-73
2022/05/30 08:28:39;;;;;;;1.23;0.45;;;;;;;;;;4991008;28;20031;-72
2022/05/30 08:31:05;;;;;;;0.85;0.30;;;;;;;;;;4991828;28;20034;-72
2022/05/30 08:33:31;;;;;;;0.52;0.20;;;;;;;;;;4995012;28;20035;-72
2022/05/30 08:36:02;;;;;;;1.17;0.50;;;32.60;26.00;;;;;;4991150;28;20035;-72
2022/05/30 08:38:33;;;;;;;4.03;0.40;;;32.40;33.30;;;;;;4990277;28;20114;-72
2022/05/30 08:43:48;;;;;;;0.55;0.20;;;33.60;25.90;;;;;;4988449;28;20085;-73
2022/05/30 08:46:35;;;;;;;7.35;0.63;;;33.30;36.90;;;;;;4990020;28;20035;-73
2022/05/30 08:49:14;;;;;;;3.20;0.60;;;;;;;;;;4987464;28;20042;-73
2022/05/30 08:52:18;;;;;;;1.60;0.40;;;34.00;25.70;;;;;;4986648;28;20068;-73
2022/05/30 08:55:02;;;;;;;2.08;0.43;;;33.30;24.70;;;;;;4992507;28;20022;-74
2022/05/30 08:57:34;;;;;;;1.45;0.40;;;33.30;25.10;;;;;;4986813;28;20057;-74
2022/05/30 09:00:07;;;;;;;2.53;0.52;;;;;;;;;;4989102;28;20022;-74
2022/05/30 09:02:40;;;;;;;2.78;0.50;;;;;;;;;;4984018;28;20034;-71
2022/05/30 09:05:17;;;;;;;1.00;0.52;;;32.50;25.10;;;;;;4989588;28;20101;-72
2022/05/30 09:07:48;;;;;;;13.45;1.02;;;;;;;;;;4990435;28;20149;-72
2022/05/30 09:10:19;;;;;;;2.90;0.20;;;;;;;;;;4991061;28;20411;-73
2022/05/30 09:13:04;;;;;;;2.10;0.38;;;32.90;24.50;;;;;;4990853;28;20034;-74
2022/05/30 09:15:42;;;;;;;3.92;0.40;;;32.80;25.20;;;;;;4990438;28;20036;-73
2022/05/30 09:18:15;;;;;;;1.17;0.20;;;;;;;;;;4988528;28;20069;-73
2022/05/30 09:20:41;;;;;;;2.15;0.30;;;;;;;;;;5004694;28;20117;-73
2022/05/30 09:23:08;;;;;;;1.58;0.40;;;;;;;;;;4990187;28;20114;-72
2022/05/30 09:25:55;;;;;;;2.28;0.30;;;32.50;25.10;;;;;;4989370;28;20035;-72
2022/05/30 09:28:22;;;;;;;0.75;0.20;;;;;;;;;;4989870;28;20047;-71
2022/05/30 09:31:15;;;;;;;0.82;0.40;;;32.90;40.90;;;;;;4997331;28;20553;-72
2022/05/30 09:33:45;;;;;;;0.30;0.10;;;32.80;25.60;;;;;;4987161;28;20491;-71
2022/05/30 09:36:18;;;;;;;0.98;0.30;;;32.80;25.80;;;;;;4989154;28;20030;-70
2022/05/30 09:38:47;;;;;;;4.47;0.20;;;;;;;;;;4989802;28;20064;-71
2022/05/30 09:41:21;;;;;;;3.75;0.60;;;32.70;25.10;;;;;;4989445;28;20037;-71
2022/05/30 09:43:58;;;;;;;4.40;0.30;;;33.10;25.40;;;;;;4989725;28;20084;-73
2022/05/30 09:46:32;;;;;;;4.80;0.20;;;;;;;;;;4989818;28;20109;-71
2022/05/30 09:49:23;;;;;;;1.38;0.30;;;33.30;25.20;;;;;;4984346;28;20121;-74
2022/05/30 09:51:52;;;;;;;1.73;0.95;;;33.20;25.30;;;;;;4986805;28;20018;-74
2022/05/30 09:54:24;;;;;;;0.13;0.13;;;33.00;25.40;;;;;;4988602;28;20508;-73
2022/05/30 09:56:57;;;;;;;2.75;0.43;;;33.10;25.20;;;;;;4985369;28;20069;-73
2022/05/30 09:59:29;;;;;;;0.60;0.30;;;;;;;;;;4985290;28;20038;-72
2022/05/30 10:01:56;;;;;;;2.00;0.32;;;;;;;;;;5000855;28;20027;-71
2022/05/30 10:04:35;;;;;;;;;;;31.50;25.50;;;;;;4986152;28;20045;-71
2022/05/30 10:07:19;;;;;;;1.02;0.30;;;31.10;26.00;;;;;;4988212;28;20548;-74
2022/05/30 10:09:59;;;;;;;1.63;0.50;;;;;;;;;;4987710;28;20030;-71
2022/05/30 10:12:29;;;;;;;1.95;0.45;;;;;;;;;;4986847;28;20027;-72
2022/05/30 10:14:55;;;;;;;1.85;0.47;;;;;;;;;;4984850;28;20407;-73
2022/05/30 10:17:26;;;;;;;3.40;0.25;;;;;;;;;;4989231;28;20043;-73
2022/05/30 10:19:52;;;;;;;2.40;0.28;;;29.60;41.70;;;;;;4988406;28;20213;-72
2022/05/30 10:28:52;;;;;;;0.93;0.57;;;29.60;32.30;;;;;;4985165;28;20053;-73
2022/05/30 10:31:36;;;;;;;1.10;0.55;;;30.40;27.60;;;;;;4987177;28;20066;-72
2022/05/30 10:34:02;;;;;;;2.47;0.50;;;;;;;;;;4985391;28;20049;-71
2022/05/30 10:36:31;;;;;;;5.50;1.03;;;;;;;;;;4989012;28;20018;-71
2022/05/30 10:39:12;;;;;;;3.42;0.47;;;;;;;;;;4988695;28;20277;-71
2022/05/30 10:41:58;;;;;;;2.42;0.93;;;;;;;;;;4988345;28;20542;-71
2022/05/30 10:44:27;;;;;;;1.88;0.52;;;;;;;;;;4981152;28;20824;-70
2022/05/30 10:46:59;;;;;;;2.83;0.60;;;;;;;;;;4987460;28;20081;-71
2022/05/30 10:49:27;;;;;;;0.77;0.30;;;;;;;;;;4988119;28;20057;-70
2022/05/30 10:51:59;;;;;;;0.77;0.50;;;;;;;;;;4983947;28;20018;-68
2022/05/30 10:54:46;;;;;;;0.38;0.20;;;26.40;30.30;;;;;;4988514;28;20487;-66
2022/05/30 10:57:11;;;;;;;;;;;;;;;;;;4987040;28;20027;-68
2022/05/30 10:59:40;;;;;;;1.83;0.47;;;;;;;;;;4988792;28;19972;-68
2022/05/30 11:02:12;;;;;;;0.65;0.45;;;;;;;;;;4987485;28;20392;-67
2022/05/30 11:04:47;;;;;;;2.00;0.50;;;27.30;29.50;;;;;;4984954;28;20015;-67
2022/05/30 11:07:15;;;;;;;0.85;0.40;;;27.00;29.20;;;;;;4985502;28;20476;-68
2022/05/30 11:09:46;;;;;;;2.63;0.47;;;;;;;;;;4985920;28;20117;-68
2022/05/30 11:12:20;;;;;;;1.15;0.63;;;;;;;;;;4985505;28;20044;-67
2022/05/30 11:15:01;;;;;;;1.77;0.35;;;;;;;;;;4987852;28;20031;-67
2022/05/30 11:17:30;;;;;;;0.55;0.28;;;;;;;;;;4983299;28;20042;-67
2022/05/30 11:20:08;;;;;;;3.00;0.40;;;25.20;31.30;;;;;;4987640;28;20519;-68
2022/05/30 11:22:48;;;;;;;1.40;0.40;;;;;;;;;;4987747;28;20034;-70
2022/05/30 11:25:18;;;;;;;2.10;0.63;;;;;;;;;;4987752;28;20519;-69
2022/05/30 11:28:03;;;;;;;0.68;0.40;;;;;;;;;;4987280;28;20022;-68
2022/05/30 11:30:50;;;;;;;3.20;0.88;;;;;;;;;;4989368;28;20088;-69
2022/05/30 11:33:44;;;;;;;0.75;0.32;;;25.50;32.80;;;;;;4983049;28;20038;-68
2022/05/30 11:36:31;;;;;;;2.83;0.50;;;25.70;32.00;;;;;;4986823;28;20098;-68
2022/05/30 11:39:03;;;;;;;2.00;1.15;;;;;;;;;;4987800;28;20034;-69
2022/05/30 11:41:44;;;;;;;1.20;0.80;;;;;;;;;;4983287;28;20045;-69
2022/05/30 11:44:10;;;;;;;6.13;0.40;;;;;;;;;;4987051;28;20452;-66
2022/05/30 11:46:57;;;;;;;1.33;0.60;;;;;;;;;;4987745;28;20053;-66
2022/05/30 11:49:32;;;;;;;0.77;0.60;;;;;;;;;;4987613;28;20034;-67
2022/05/30 11:52:12;;;;;;;0.43;0.30;;;25.30;33.40;;;;;;4984147;28;20062;-67
2022/05/30 11:54:47;;;;;;;0.77;0.52;;;;;;;;;;4983937;28;20049;-69
2022/05/30 11:57:23;;;;;;;0.30;0.30;;;;;;;;;;4987333;28;20145;-68
2022/05/30 12:00:14;;;;;;;3.60;1.02;;;25.50;33.40;;;;;;4987739;28;20043;-69
2022/05/30 12:02:57;;;;;;;0.75;0.35;;;;;;;;;;4987164;28;20080;-68
2022/05/30 12:05:52;;;;;;;4.10;0.93;;;25.70;33.20;;;;;;4986875;28;20054;-68
2022/05/30 12:08:27;;;;;;;1.17;0.55;;;;;;;;;;4987524;28;20093;-68
2022/05/30 12:10:56;;;;;;;1.17;0.40;;;;;;;;;;4987207;28;20034;-68
2022/05/30 12:13:45;;;;;;;2.75;0.40;;;;;;;;;;4987442;28;20411;-67
2022/05/30 12:16:12;;;;;;;2.83;0.60;;;;;;;;;;5003319;28;20046;-68
2022/05/30 12:24:13;;;;;;;3.65;0.70;;;;;;;;;;5003856;28;20111;-69
2022/05/30 12:26:48;;;;;;;1.02;0.35;;;;;;;;;;5003976;28;20077;-68
2022/05/30 12:29:37;;;;;;;4.82;0.35;;;25.10;32.40;;;;;;4994826;28;20069;-68
2022/05/30 12:32:20;;;;;;;4.65;0.60;;;25.40;33.10;;;;;;5004121;28;20181;-68
2022/05/30 12:34:57;;;;;;;2.30;0.50;;;25.70;33.80;;;;;;5002042;28;20041;-68
2022/05/30 12:37:43;;;;;;;3.55;0.45;;;;;;;;;;5002928;28;20037;-66
2022/05/30 12:40:26;;;;;;;4.40;0.43;;;26.00;32.80;;;;;;5001197;28;20132;-68
2022/05/30 12:43:04;;;;;;;3.92;0.80;;;;;;;;;;5005341;28;20473;-68
2022/05/30 12:45:36;;;;;;;0.80;0.60;;;25.60;32.40;;;;;;5004904;28;20037;-68
2022/05/30 12:48:22;;;;;;;1.15;0.50;;;;;;;;;;5003531;28;20034;-67
2022/05/30 12:50:51;;;;;;;3.05;0.60;;;;;;;;;;4995426;28;20513;-66
2022/05/30 12:53:22;;;;;;;2.30;0.60;;;25.40;33.40;;;;;;4981790;28;20046;-69
2022/05/30 12:55:49;;;;;;;0.85;0.50;;;;;;;;;;4990754;28;20034;-69
2022/05/30 12:58:35;;;;;;;0.57;0.25;;;25.50;33.90;;;;;;4990222;28;20038;-67
2022/05/30 13:01:21;;;;;;;4.22;0.75;;;;;;;;;;4985497;28;20049;-67
2022/05/30 13:04:02;;;;;;;0.57;0.30;;;;;;;;;;4989367;28;20030;-67
2022/05/30 13:06:30;;;;;;;0.80;0.43;;;25.20;35.40;;;;;;4986674;28;20466;-68
2022/05/30 13:08:58;;;;;;;0.45;0.38;;;;;;;;;;4989300;28;20045;-69
2022/05/30 13:11:24;;;;;;;4.03;0.70;;;;;;;;;;4988907;28;20117;-68
2022/05/30 13:13:55;;;;;;;1.20;0.73;;;25.10;34.00;;;;;;4989399;28;20042;-68
2022/05/30 13:16:31;;;;;;;0.93;0.45;;;;;;;;;;4990136;28;20030;-68
2022/05/30 13:18:58;;;;;;;1.40;1.30;;;;;;;;;;4991762;28;20018;-67
2022/05/30 13:21:26;;;;;;;1.98;0.57;;;;;;;;;;4990046;28;20038;-68
2022/05/30 13:23:53;;;;;;;4.05;0.68;;;;;;;;;;4986648;28;20038;-68
2022/05/30 13:26:19;;;;;;;0.93;0.50;;;;;;;;;;4990319;28;20034;-68
2022/05/30 13:28:49;;;;;;;2.17;0.80;;;24.00;33.50;;;;;;4989970;28;20065;-67
2022/05/30 13:31:15;;;;;;;2.20;0.65;;;24.20;39.30;;;;;;4990404;28;20026;-67
2022/05/30 13:33:50;;;;;;;0.57;0.47;;;24.00;35.30;;;;;;4990868;28;20026;-68
2022/05/30 13:36:18;;;;;;;2.38;0.65;;;;;;;;;;4989821;28;20503;-66
2022/05/30 13:38:48;;;;;;;1.52;0.52;;;24.10;33.90;;;;;;4989735;28;20105;-69
2022/05/30 13:41:14;;;;;;;2.28;0.43;;;;;;;;;;4985107;28;20039;-69
2022/05/30 13:43:40;;;;;;;1.10;0.63;;;;;;;;;;4989415;28;20028;-69
2022/05/30 13:46:06;;;;;;;2.17;1.15;;;;;;;;;;4989878;28;20030;-70
2022/05/30 13:48:34;;;;;;;0.30;0.30;;;23.30;33.20;;;;;;4989693;28;20034;-68
2022/05/30 13:51:02;;;;;;;0.68;0.50;;;;;;;;;;4982064;28;20416;-66
2022/05/30 13:53:29;;;;;;;;;;;22.70;33.80;;;;;;4989887;28;20058;-69
2022/05/30 13:56:04;;;;;;;2.92;0.73;;;;;;;;;;4985666;28;19910;-68
2022/05/30 13:58:31;;;;;;;1.35;0.60;;;;;;;;;;4982860;28;20062;-68
2022/05/30 14:00:57;;;;;;;;;;;;;;;;;;4988704;28;20030;-68
2022/05/30 14:03:24;;;;;;;1.60;0.45;;;22.80;37.10;;;;;;4987059;28;20004;-68
2022/05/30 14:05:50;;;;;;;0.55;0.38;;;;;;;;;;4984165;28;20026;-66
2022/05/30 14:08:29;;;;;;;2.22;0.68;;;;;;;;;;4989044;28;20036;-68
2022/05/30 14:11:00;;;;;;;0.68;0.50;;;23.60;34.90;;;;;;4989030;28;20085;-69
2022/05/30 14:13:32;;;;;;;1.70;0.43;;;;;;;;;;4989530;28;20030;-68
2022/05/30 14:15:59;;;;;;;0.57;0.50;;;;;;;;;;4990803;28;20080;-67
2022/05/30 14:18:27;;;;;;;0.82;0.55;;;;;;;;;;4984008;28;20459;-68
2022/05/30 14:20:54;;;;;;;1.48;0.77;;;23.60;36.80;;;;;;4989363;28;20050;-70
2022/05/30 14:23:21;;;;;;;7.28;1.02;;;;;;;;;;4989030;28;20035;-68
2022/05/30 14:25:50;;;;;;;1.42;0.52;;;;;;;;;;4986483;28;20645;-68
2022/05/30 14:28:26;;;;;;;1.55;0.68;;;;;;;;;;4986989;28;20065;-68
2022/05/30 14:30:53;;;;;;;0.50;0.40;;;;;;;;;;4989797;28;20030;-68
2022/05/30 14:33:24;;;;;;;2.70;0.50;;;23.00;37.40;;;;;;4983883;28;20040;-67
2022/05/30 14:35:50;;;;;;;0.98;0.47;;;;;;;;;;4984567;28;20057;-68
2022/05/30 14:38:36;;;;;;;3.97;0.60;;;22.70;35.60;;;;;;4988931;28;20030;-67
2022/05/30 14:41:02;;;;;;;0.73;0.50;;;;;;;;;;4987941;28;20041;-67
2022/05/30 14:43:45;;;;;;;2.45;0.45;;;;;;;;;;4988913;28;20484;-66
2022/05/30 14:46:11;;;;;;;3.33;0.60;;;22.60;53.80;;;;;;4987082;28;20027;-69
2022/05/30 14:48:39;;;;;;;1.15;0.70;;;;;;;;;;4984194;28;20038;-68
2022/05/30 14:51:12;;;;;;;0.95;0.77;;;;;;;;;;4986638;28;20026;-69
2022/05/30 14:53:40;;;;;;;1.90;0.60;;;;;;;;;;4984477;28;20034;-66
2022/05/30 14:56:10;;;;;;;3.13;0.65;;;22.90;35.40;;;;;;4987745;28;20134;-68
2022/05/30 14:58:45;;;;;;;0.73;0.60;;;22.90;36.70;;;;;;4988960;28;20026;-68
2022/05/30 15:01:11;;;;;;;1.05;0.57;;;;;;;;;;4986912;28;20086;-66
2022/05/30 15:06:24;;;;;;;3.28;0.60;;;;;;;;;;4983505;28;20101;-67
2022/05/30 15:08:52;;;;;;;1.20;0.50;;;;;;;;;;4982303;28;20030;-67